createdAt,value
2022-12-16T00:00:00.919Z,76.48
2022-12-16T00:01:00.997Z,76.39
2022-12-16T00:02:00.979Z,76.39
2022-12-16T00:03:00.961Z,76.48
2022-12-16T00:04:00.892Z,76.29
2022-12-16T00:05:00.901Z,76.39
2022-12-16T00:06:00.883Z,76.77
2022-12-16T00:07:00.884Z,76.39
2022-12-16T00:08:00.864Z,76.39
2022-12-16T00:09:00.865Z,76.39
2022-12-16T00:10:00.868Z,76.39
2022-12-16T00:11:00.861Z,76.39
2022-12-16T00:12:00.843Z,76.39
2022-12-16T00:13:03.627Z,76.48
2022-12-16T00:14:00.818Z,76.48
2022-12-16T00:15:00.830Z,76.39
2022-12-16T00:16:00.840Z,76.48
2022-12-16T00:17:00.822Z,76.48
2022-12-16T00:18:00.792Z,76.77
2022-12-16T00:19:00.797Z,76.48
2022-12-16T00:20:00.777Z,76.48
2022-12-16T00:21:00.788Z,76.39
2022-12-16T00:22:00.759Z,76.48
2022-12-16T00:23:00.773Z,76.48
2022-12-16T00:24:00.762Z,76.39
2022-12-16T00:25:00.747Z,76.48
2022-12-16T00:26:00.743Z,76.29
2022-12-16T00:27:00.741Z,76.29
2022-12-16T00:28:00.747Z,76.39
2022-12-16T00:29:00.735Z,76.39
2022-12-16T00:30:00.707Z,76.29
2022-12-16T00:31:00.700Z,76.48
2022-12-16T00:32:00.836Z,76.39
2022-12-16T00:33:00.720Z,76.39
2022-12-16T00:34:00.688Z,76.48
2022-12-16T00:35:00.670Z,76.39
2022-12-16T00:36:00.659Z,76.29
2022-12-16T00:37:00.661Z,76.39
2022-12-16T00:38:00.645Z,76.48
2022-12-16T00:39:00.659Z,76.39
2022-12-16T00:40:00.628Z,76.29
2022-12-16T00:41:00.626Z,76.39
2022-12-16T00:42:00.615Z,76.39
2022-12-16T00:43:00.619Z,76.48
2022-12-16T00:44:00.612Z,76.48
2022-12-16T00:45:00.608Z,76.29
2022-12-16T00:46:00.664Z,76.29
2022-12-16T00:47:00.600Z,76.57
2022-12-16T00:48:00.572Z,76.57
2022-12-16T00:49:00.598Z,76.67
2022-12-16T00:50:00.556Z,76.57
2022-12-16T00:51:00.564Z,76.57
2022-12-16T00:52:00.541Z,76.67
2022-12-16T00:53:00.541Z,76.77
2022-12-16T00:54:00.536Z,76.57
2022-12-16T00:55:00.522Z,76.57
2022-12-16T00:56:00.511Z,76.77
2022-12-16T00:57:00.511Z,76.67
2022-12-16T00:58:00.506Z,76.67
2022-12-16T00:59:00.498Z,76.77
2022-12-16T01:00:00.500Z,76.77
2022-12-16T01:01:00.542Z,76.77
2022-12-16T01:02:00.793Z,76.77
2022-12-16T01:03:00.663Z,76.57
2022-12-16T01:04:00.455Z,76.67
2022-12-16T01:05:00.482Z,76.77
2022-12-16T01:06:00.441Z,76.67
2022-12-16T01:07:00.441Z,76.67
2022-12-16T01:08:00.433Z,76.77
2022-12-16T01:09:01.734Z,76.67
2022-12-16T01:10:00.473Z,76.57
2022-12-16T01:11:00.419Z,76.48
2022-12-16T01:12:00.410Z,76.57
2022-12-16T01:13:00.405Z,76.67
2022-12-16T01:14:00.397Z,76.48
2022-12-16T01:15:00.395Z,76.29
2022-12-16T01:16:00.404Z,76.57
2022-12-16T01:17:00.369Z,76.48
2022-12-16T01:18:00.356Z,76.48
2022-12-16T01:19:00.351Z,76.48
2022-12-16T01:20:00.377Z,76.48
2022-12-16T01:21:00.416Z,76.39
2022-12-16T01:22:00.336Z,76.48
2022-12-16T01:23:00.341Z,76.48
2022-12-16T01:24:00.323Z,76.39
2022-12-16T01:25:00.304Z,76.48
2022-12-16T01:26:00.297Z,76.39
2022-12-16T01:27:00.307Z,76.48
2022-12-16T01:28:00.280Z,76.57
2022-12-16T01:29:00.295Z,76.57
2022-12-16T01:30:00.292Z,76.57
2022-12-16T01:31:00.285Z,76.39
2022-12-16T01:32:00.310Z,76.48
2022-12-16T01:33:00.261Z,76.48
2022-12-16T01:34:00.235Z,76.48
2022-12-16T01:35:00.235Z,76.48
2022-12-16T01:36:00.224Z,76.48
2022-12-16T01:37:00.245Z,76.48
2022-12-16T01:38:00.226Z,76.48
2022-12-16T01:39:00.215Z,76.48
2022-12-16T01:40:00.207Z,76.57
2022-12-16T01:41:00.204Z,76.48
2022-12-16T01:42:00.193Z,76.48
2022-12-16T01:43:00.193Z,76.48
2022-12-16T01:44:00.179Z,76.48
2022-12-16T01:45:00.169Z,76.48
2022-12-16T01:46:00.300Z,76.48
2022-12-16T01:47:00.146Z,76.39
2022-12-16T01:48:00.157Z,76.67
2022-12-16T01:49:00.132Z,76.39
2022-12-16T01:50:00.162Z,76.48
2022-12-16T01:51:00.117Z,76.48
2022-12-16T01:52:00.109Z,76.39
2022-12-16T01:53:00.118Z,76.57
2022-12-16T01:55:33.714Z,76.48
2022-12-16T01:56:31.063Z,76.48
2022-12-16T01:57:31.036Z,76.48
2022-12-16T01:58:31.026Z,76.48
2022-12-16T01:59:31.019Z,76.39
2022-12-16T02:00:31.026Z,76.39
2022-12-16T02:01:31.107Z,76.25
2022-12-16T02:02:31.127Z,76.29
2022-12-16T02:03:31.413Z,76.29
2022-12-16T02:04:30.994Z,76.29
2022-12-16T02:05:30.967Z,76.29
2022-12-16T02:06:30.967Z,76.39
2022-12-16T02:07:30.959Z,76.48
2022-12-16T02:08:30.971Z,76.48
2022-12-16T02:09:30.947Z,76.48
2022-12-16T02:14:01.900Z,76.39
2022-12-16T02:15:01.908Z,76.39
2022-12-16T02:16:01.881Z,76.48
2022-12-16T02:17:02.002Z,76.44
2022-12-16T02:18:01.888Z,76.35
2022-12-16T02:19:01.854Z,76.44
2022-12-16T02:20:01.865Z,76.48
2022-12-16T02:21:01.856Z,76.48
2022-12-16T02:22:01.851Z,76.39
2022-12-16T02:23:01.836Z,76.39
2022-12-16T02:24:01.845Z,76.39
2022-12-16T02:25:01.810Z,76.39
2022-12-16T02:26:01.836Z,76.16
2022-12-16T02:29:06.009Z,76.29
2022-12-16T02:30:05.939Z,76.35
2022-12-16T02:31:05.962Z,76.35
2022-12-16T02:32:05.917Z,76.73
2022-12-16T02:33:05.899Z,76.35
2022-12-16T02:34:05.896Z,76.25
2022-12-16T02:35:05.892Z,76.35
2022-12-16T02:36:05.885Z,76.35
2022-12-16T02:37:05.885Z,76.25
2022-12-16T02:38:05.857Z,76.39
2022-12-16T02:39:05.888Z,76.35
2022-12-16T02:40:05.838Z,76.44
2022-12-16T02:41:05.842Z,76.48
2022-12-16T02:42:05.825Z,76.35
2022-12-16T02:43:05.839Z,76.44
2022-12-16T02:46:14.047Z,76.25
2022-12-16T02:47:13.992Z,76.25
2022-12-16T02:48:13.987Z,76.16
2022-12-16T02:49:13.967Z,76.44
2022-12-16T02:50:13.958Z,76.64
2022-12-16T02:51:13.963Z,76.54
2022-12-16T02:52:13.962Z,75.96
2022-12-16T02:53:13.941Z,76.64
2022-12-16T02:54:13.961Z,76.54
2022-12-16T02:55:13.936Z,76.64
2022-12-16T02:56:13.923Z,76.54
2022-12-16T02:57:13.907Z,75.96
2022-12-16T02:58:13.896Z,76.64
2022-12-16T02:59:13.918Z,76.73
2022-12-16T03:00:13.896Z,75.96
2022-12-16T03:02:36.774Z,76.64
2022-12-16T03:03:37.113Z,76.73
2022-12-16T03:04:36.679Z,76.64
2022-12-16T03:05:36.656Z,76.64
2022-12-16T03:06:36.645Z,76.73
2022-12-16T03:07:36.623Z,76.64
2022-12-16T03:08:36.614Z,76.64
2022-12-16T03:09:36.631Z,76.64
2022-12-16T03:10:36.617Z,75.78
2022-12-16T03:11:36.607Z,76.54
2022-12-16T03:12:36.589Z,76.54
2022-12-16T03:13:36.582Z,76.54
2022-12-16T03:14:36.573Z,75.87
2022-12-16T03:15:36.594Z,75.87
2022-12-16T03:16:36.615Z,76.44
2022-12-16T03:21:22.248Z,75.87
2022-12-16T03:22:22.242Z,75.78
2022-12-16T03:23:22.239Z,76.54
2022-12-16T03:24:22.234Z,76.64
2022-12-16T03:25:22.237Z,75.78
2022-12-16T03:26:22.217Z,75.87
2022-12-16T03:27:22.218Z,76.44
2022-12-16T03:28:22.216Z,76.44
2022-12-16T03:29:22.191Z,76.73
2022-12-16T03:30:22.196Z,76.73
2022-12-16T03:31:22.222Z,76.73
2022-12-16T03:32:22.212Z,76.73
2022-12-16T03:33:22.176Z,76.54
2022-12-16T03:36:25.987Z,76.64
2022-12-16T03:37:25.967Z,76.54
2022-12-16T03:38:25.974Z,76.54
2022-12-16T03:39:25.950Z,75.87
2022-12-16T03:40:25.979Z,76.44
2022-12-16T03:41:25.950Z,76.64
2022-12-16T03:42:25.937Z,75.78
2022-12-16T03:43:25.935Z,76.54
2022-12-16T03:44:25.912Z,75.87
2022-12-16T03:45:25.903Z,75.87
2022-12-16T03:46:25.978Z,75.78
2022-12-16T03:47:25.888Z,75.78
2022-12-16T03:48:25.888Z,76.06
2022-12-16T03:49:25.871Z,75.78
2022-12-16T03:50:25.931Z,76.06
2022-12-16T03:52:48.584Z,75.96
2022-12-16T03:53:48.447Z,75.96
2022-12-16T03:54:48.447Z,75.87
2022-12-16T03:55:48.436Z,76.06
2022-12-16T03:56:48.418Z,76.16
2022-12-16T03:57:48.413Z,76.06
2022-12-16T03:58:48.398Z,75.96
2022-12-16T03:59:48.385Z,75.96
2022-12-16T04:00:48.402Z,76.06
2022-12-16T04:01:48.588Z,75.96
2022-12-16T04:02:48.526Z,75.96
2022-12-16T04:03:48.427Z,76.16
2022-12-16T04:04:48.351Z,76.16
2022-12-16T04:05:48.337Z,75.96
2022-12-16T04:06:48.338Z,75.78
2022-12-16T04:09:56.572Z,75.96
2022-12-16T04:10:56.567Z,75.87
2022-12-16T04:11:56.559Z,75.96
2022-12-16T04:12:56.533Z,75.78
2022-12-16T04:13:56.531Z,75.96
2022-12-16T04:14:56.519Z,76.16
2022-12-16T04:15:56.568Z,75.87
2022-12-16T04:16:56.501Z,75.96
2022-12-16T04:17:56.512Z,76.16
2022-12-16T04:18:56.505Z,75.87
2022-12-16T04:19:56.508Z,75.87
2022-12-16T04:20:56.475Z,76.06
2022-12-16T04:21:56.467Z,76.06
2022-12-16T04:22:56.461Z,75.87
2022-12-16T04:23:56.452Z,75.87
2022-12-16T04:27:00.581Z,75.87
2022-12-16T04:28:00.539Z,76.06
2022-12-16T04:29:00.563Z,75.96
2022-12-16T04:30:00.526Z,75.96
2022-12-16T04:31:00.629Z,76.06
2022-12-16T04:32:00.509Z,75.96
2022-12-16T04:33:00.521Z,76.06
2022-12-16T04:34:00.505Z,75.96
2022-12-16T04:35:00.497Z,76.06
2022-12-16T04:36:00.497Z,75.96
2022-12-16T04:37:00.475Z,76.06
2022-12-16T04:38:00.479Z,76.06
2022-12-16T04:39:00.473Z,75.96
2022-12-16T04:40:00.462Z,75.96
2022-12-16T04:41:00.457Z,75.96
2022-12-16T04:43:23.185Z,76.06
2022-12-16T04:44:23.171Z,75.96
2022-12-16T04:45:23.162Z,75.96
2022-12-16T04:46:23.156Z,76.06
2022-12-16T04:47:23.142Z,76.06
2022-12-16T04:48:23.125Z,75.96
2022-12-16T04:49:23.119Z,76.06
2022-12-16T04:50:23.108Z,76.06
2022-12-16T04:51:23.105Z,76.06
2022-12-16T04:52:23.091Z,76.06
2022-12-16T04:53:23.107Z,76.06
2022-12-16T04:54:23.084Z,75.96
2022-12-16T04:55:23.072Z,75.87
2022-12-16T04:56:23.071Z,75.96
2022-12-16T04:57:23.080Z,75.96
2022-12-16T05:00:27.272Z,75.78
2022-12-16T05:01:27.294Z,76.06
2022-12-16T05:02:27.367Z,76.06
2022-12-16T05:03:27.209Z,75.87
2022-12-16T05:04:27.155Z,75.78
2022-12-16T05:05:27.153Z,76.06
2022-12-16T05:06:27.138Z,75.87
2022-12-16T05:07:27.144Z,75.96
2022-12-16T05:08:27.144Z,75.68
2022-12-16T05:09:27.110Z,75.78
2022-12-16T05:10:27.117Z,75.96
2022-12-16T05:11:27.106Z,75.96
2022-12-16T05:12:27.102Z,75.96
2022-12-16T05:13:27.079Z,76.06
2022-12-16T05:14:27.077Z,76.06
2022-12-16T05:15:27.062Z,76.06
2022-12-16T05:16:27.223Z,76.06
2022-12-16T05:17:27.061Z,76.06
2022-12-16T05:18:27.062Z,76.06
2022-12-16T05:19:31.511Z,75.96
2022-12-16T05:20:27.037Z,75.96
2022-12-16T05:21:27.018Z,75.96
2022-12-16T05:22:27.018Z,75.87
2022-12-16T05:23:27.005Z,76.06
2022-12-16T05:24:27.002Z,75.87
2022-12-16T05:25:26.991Z,75.96
2022-12-16T05:26:27.007Z,75.78
2022-12-16T05:27:26.976Z,75.96
2022-12-16T05:28:26.968Z,75.78
2022-12-16T05:29:26.973Z,75.78
2022-12-16T05:33:16.630Z,76.06
2022-12-16T05:34:16.541Z,76.06
2022-12-16T05:35:16.523Z,75.78
2022-12-16T05:36:16.530Z,75.78
2022-12-16T05:37:16.528Z,76.16
2022-12-16T05:38:16.500Z,75.96
2022-12-16T05:39:16.510Z,75.78
2022-12-16T05:40:16.484Z,75.78
2022-12-16T05:41:16.478Z,75.87
2022-12-16T05:42:16.466Z,75.78
2022-12-16T05:43:16.994Z,76.06
2022-12-16T05:44:16.454Z,76.16
2022-12-16T05:45:16.459Z,76.06
2022-12-16T05:46:16.580Z,76.06
2022-12-16T05:47:16.516Z,75.59
2022-12-16T05:48:16.419Z,75.49
2022-12-16T05:49:16.438Z,75.68
2022-12-16T05:50:16.407Z,75.78
2022-12-16T05:51:16.410Z,75.59
2022-12-16T05:52:16.392Z,75.20
2022-12-16T05:53:16.393Z,75.30
2022-12-16T05:54:16.375Z,75.01
2022-12-16T05:55:16.390Z,74.92
2022-12-16T05:56:16.368Z,75.01
2022-12-16T05:57:16.357Z,75.30
2022-12-16T05:58:16.361Z,74.77
2022-12-16T05:59:16.358Z,74.86
2022-12-16T06:00:16.331Z,74.38
2022-12-16T06:01:16.340Z,74.77
2022-12-16T06:02:16.465Z,74.96
2022-12-16T06:03:16.471Z,74.38
2022-12-16T06:04:18.050Z,74.29
2022-12-16T06:05:16.331Z,74.29
2022-12-16T06:06:16.296Z,74.19
2022-12-16T06:07:16.284Z,74.01
2022-12-16T06:08:16.287Z,73.81
2022-12-16T06:09:16.277Z,73.91
2022-12-16T06:10:16.272Z,73.62
2022-12-16T06:11:16.271Z,73.52
2022-12-16T06:12:16.259Z,73.62
2022-12-16T06:13:16.261Z,73.72
2022-12-16T06:14:16.249Z,73.72
2022-12-16T06:15:16.248Z,73.52
2022-12-16T06:16:16.270Z,73.33
2022-12-16T06:17:16.239Z,73.47
2022-12-16T06:18:16.216Z,73.37
2022-12-16T06:19:16.217Z,73.18
2022-12-16T06:20:16.211Z,73.08
2022-12-16T06:21:16.219Z,73.37
2022-12-16T06:22:16.177Z,72.99
2022-12-16T06:23:19.844Z,73.08
2022-12-16T06:24:16.181Z,73.18
2022-12-16T06:25:16.177Z,73.08
2022-12-16T06:26:16.149Z,73.08
2022-12-16T06:27:16.169Z,72.89
2022-12-16T06:28:16.157Z,73.08
2022-12-16T06:29:16.189Z,72.89
2022-12-16T06:30:16.194Z,72.89
2022-12-16T06:31:16.221Z,72.99
2022-12-16T06:32:16.145Z,72.89
2022-12-16T06:33:16.148Z,72.89
2022-12-16T06:34:16.132Z,72.89
2022-12-16T06:35:16.100Z,73.18
2022-12-16T06:36:16.116Z,73.18
2022-12-16T06:37:16.129Z,72.99
2022-12-16T06:38:16.245Z,72.99
2022-12-16T06:39:16.119Z,72.99
2022-12-16T06:40:16.064Z,73.08
2022-12-16T06:41:16.077Z,73.12
2022-12-16T06:42:16.051Z,73.08
2022-12-16T06:43:16.048Z,73.18
2022-12-16T06:44:16.063Z,73.37
2022-12-16T06:45:16.067Z,73.18
2022-12-16T06:46:16.064Z,73.18
2022-12-16T06:47:16.037Z,73.08
2022-12-16T06:48:16.011Z,72.80
2022-12-16T06:49:16.022Z,72.71
2022-12-16T06:50:15.998Z,73.08
2022-12-16T06:51:16.009Z,73.08
2022-12-16T06:52:16.003Z,72.99
2022-12-16T06:53:16.009Z,73.37
2022-12-16T06:54:15.989Z,73.28
2022-12-16T06:55:15.972Z,73.47
2022-12-16T06:56:15.981Z,73.47
2022-12-16T06:57:15.956Z,73.28
2022-12-16T06:58:15.969Z,73.37
2022-12-16T06:59:15.944Z,73.75
2022-12-16T07:00:15.944Z,73.66
2022-12-16T07:01:15.982Z,73.47
2022-12-16T07:02:16.155Z,73.47
2022-12-16T07:03:15.979Z,73.66
2022-12-16T07:04:15.920Z,73.56
2022-12-16T07:05:15.919Z,73.85
2022-12-16T07:06:15.899Z,74.13
2022-12-16T07:07:15.913Z,73.94
2022-12-16T07:08:15.900Z,73.85
2022-12-16T07:09:15.915Z,74.23
2022-12-16T07:10:15.887Z,74.23
2022-12-16T07:11:17.033Z,74.01
2022-12-16T07:12:15.854Z,74.23
2022-12-16T07:13:15.867Z,74.42
2022-12-16T07:14:15.847Z,74.32
2022-12-16T07:15:15.863Z,74.13
2022-12-16T07:16:15.914Z,74.13
2022-12-16T07:17:17.516Z,74.71
2022-12-16T07:18:15.841Z,74.52
2022-12-16T07:19:15.834Z,74.67
2022-12-16T07:20:15.807Z,74.57
2022-12-16T07:21:15.800Z,74.48
2022-12-16T07:22:15.808Z,74.61
2022-12-16T07:23:30.584Z,74.48
2022-12-16T07:24:15.790Z,74.57
2022-12-16T07:25:15.799Z,74.38
2022-12-16T07:26:15.771Z,74.57
2022-12-16T07:27:15.783Z,74.67
2022-12-16T07:28:16.068Z,74.38
2022-12-16T07:29:15.768Z,74.57
2022-12-16T07:30:15.744Z,74.48
2022-12-16T07:31:15.781Z,74.67
2022-12-16T07:32:15.739Z,74.67
2022-12-16T07:33:15.726Z,74.67
2022-12-16T07:34:15.734Z,74.67
2022-12-16T07:35:15.720Z,74.67
2022-12-16T07:36:15.697Z,74.77
2022-12-16T07:37:15.711Z,74.86
2022-12-16T07:38:15.703Z,74.57
2022-12-16T07:39:15.695Z,75.34
2022-12-16T07:40:15.683Z,75.43
2022-12-16T07:41:15.707Z,75.15
2022-12-16T07:42:15.669Z,75.15
2022-12-16T07:43:15.654Z,75.15
2022-12-16T07:44:15.645Z,75.15
2022-12-16T07:45:15.653Z,75.05
2022-12-16T07:46:15.705Z,75.05
2022-12-16T07:47:15.630Z,75.34
2022-12-16T07:48:15.644Z,75.05
2022-12-16T07:49:15.618Z,75.05
2022-12-16T07:50:15.616Z,75.24
2022-12-16T07:51:15.611Z,74.96
2022-12-16T07:52:15.604Z,74.96
2022-12-16T07:53:15.589Z,74.96
2022-12-16T07:54:15.589Z,75.05
2022-12-16T07:55:15.570Z,75.15
2022-12-16T07:56:15.581Z,75.15
2022-12-16T07:57:15.586Z,75.34
2022-12-16T07:58:15.559Z,75.43
2022-12-16T07:59:15.552Z,75.34
2022-12-16T08:00:15.546Z,75.34
2022-12-16T08:01:15.610Z,75.24
2022-12-16T08:02:15.650Z,75.24
2022-12-16T08:03:15.543Z,75.15
2022-12-16T08:04:15.521Z,75.15
2022-12-16T08:05:15.508Z,75.15
2022-12-16T08:06:15.532Z,75.05
2022-12-16T08:07:15.486Z,75.15
2022-12-16T08:08:15.480Z,75.24
2022-12-16T08:09:15.503Z,75.05
2022-12-16T08:10:15.465Z,75.15
2022-12-16T08:11:15.471Z,75.24
2022-12-16T08:12:15.454Z,75.15
2022-12-16T08:13:17.558Z,75.15
2022-12-16T08:14:15.457Z,75.15
2022-12-16T08:15:15.426Z,75.62
2022-12-16T08:16:15.524Z,75.81
2022-12-16T08:17:15.546Z,75.05
2022-12-16T08:18:15.434Z,75.53
2022-12-16T08:19:15.411Z,75.81
2022-12-16T08:20:15.405Z,75.72
2022-12-16T08:21:15.411Z,75.24
2022-12-16T08:22:15.391Z,75.05
2022-12-16T08:23:15.385Z,75.24
2022-12-16T08:24:15.381Z,75.43
2022-12-16T08:25:15.363Z,75.15
2022-12-16T08:26:15.368Z,75.01
2022-12-16T08:27:15.339Z,75.15
2022-12-16T08:28:15.367Z,75.24
2022-12-16T08:29:42.747Z,75.15
2022-12-16T08:30:15.338Z,75.20
2022-12-16T08:31:15.464Z,75.20
2022-12-16T08:32:15.324Z,75.24
2022-12-16T08:33:19.720Z,75.15
2022-12-16T08:34:15.306Z,75.24
2022-12-16T08:35:15.296Z,75.15
2022-12-16T08:36:15.300Z,75.24
2022-12-16T08:37:15.271Z,75.20
2022-12-16T08:38:15.267Z,75.24
2022-12-16T08:39:15.274Z,75.11
2022-12-16T08:40:34.967Z,75.15
2022-12-16T08:41:15.249Z,75.20
2022-12-16T08:42:15.248Z,75.20
2022-12-16T08:43:15.245Z,75.20
2022-12-16T08:44:15.225Z,75.24
2022-12-16T08:45:15.253Z,75.20
2022-12-16T08:46:15.346Z,75.43
2022-12-16T08:47:15.197Z,75.30
2022-12-16T08:48:15.232Z,75.40
2022-12-16T08:50:15.181Z,75.20
2022-12-16T08:51:15.170Z,75.20
2022-12-16T08:52:15.188Z,75.20
2022-12-16T08:53:15.172Z,75.40
2022-12-16T08:54:15.154Z,75.40
2022-12-16T08:55:15.150Z,75.30
2022-12-16T08:56:15.155Z,75.20
2022-12-16T08:57:15.138Z,75.49
2022-12-16T08:58:15.121Z,75.20
2022-12-16T08:59:15.129Z,75.20
2022-12-16T09:00:15.119Z,75.30
2022-12-16T09:01:15.221Z,75.40
2022-12-16T09:02:15.455Z,75.11
2022-12-16T09:03:15.444Z,75.40
2022-12-16T09:04:15.184Z,75.40
2022-12-16T09:05:15.071Z,75.49
2022-12-16T09:06:15.086Z,75.40
2022-12-16T09:07:15.073Z,75.40
2022-12-16T09:08:15.055Z,75.49
2022-12-16T09:09:15.040Z,75.49
2022-12-16T09:10:15.068Z,75.11
2022-12-16T09:11:15.078Z,75.11
2022-12-16T09:12:15.029Z,75.01
2022-12-16T09:13:15.040Z,74.92
2022-12-16T09:14:15.040Z,75.01
2022-12-16T09:15:15.011Z,74.92
2022-12-16T09:16:19.311Z,75.01
2022-12-16T09:17:15.018Z,75.01
2022-12-16T09:18:15.001Z,75.11
2022-12-16T09:19:14.985Z,75.40
2022-12-16T09:20:14.975Z,75.11
2022-12-16T09:21:14.976Z,75.01
2022-12-16T09:22:14.963Z,75.01
2022-12-16T09:23:14.939Z,75.11
2022-12-16T09:24:14.956Z,75.01
2022-12-16T09:25:14.929Z,75.01
2022-12-16T09:26:14.973Z,75.01
2022-12-16T09:27:14.911Z,75.11
2022-12-16T09:28:14.923Z,75.30
2022-12-16T09:29:14.926Z,75.11
2022-12-16T09:30:14.895Z,75.20
2022-12-16T09:31:14.934Z,75.11
2022-12-16T09:32:14.889Z,75.11
2022-12-16T09:33:14.889Z,75.11
2022-12-16T09:34:14.882Z,75.40
2022-12-16T09:35:14.866Z,75.01
2022-12-16T09:36:14.853Z,75.40
2022-12-16T09:37:14.840Z,75.30
2022-12-16T09:38:14.835Z,75.30
2022-12-16T09:39:14.825Z,75.40
2022-12-16T09:40:14.842Z,75.20
2022-12-16T09:41:14.831Z,74.54
2022-12-16T09:42:14.820Z,75.40
2022-12-16T09:43:14.799Z,74.63
2022-12-16T09:44:14.823Z,74.92
2022-12-16T09:45:14.792Z,75.30
2022-12-16T09:46:14.921Z,74.73
2022-12-16T09:47:14.766Z,74.63
2022-12-16T09:48:14.785Z,75.20
2022-12-16T09:49:14.789Z,75.30
2022-12-16T09:50:14.757Z,75.30
2022-12-16T09:51:14.763Z,75.20
2022-12-16T09:52:18.386Z,74.92
2022-12-16T09:53:14.732Z,74.82
2022-12-16T09:54:14.735Z,74.73
2022-12-16T09:55:14.718Z,74.73
2022-12-16T09:56:14.731Z,74.73
2022-12-16T09:57:14.696Z,74.63
2022-12-16T09:58:14.696Z,74.54
2022-12-16T09:59:14.699Z,74.54
2022-12-16T10:00:14.690Z,74.63
2022-12-16T10:01:14.679Z,74.63
2022-12-16T10:02:14.941Z,74.63
2022-12-16T10:03:14.866Z,74.63
2022-12-16T10:04:14.710Z,74.44
2022-12-16T10:05:14.655Z,74.54
2022-12-16T10:06:14.636Z,74.63
2022-12-16T10:07:14.618Z,74.63
2022-12-16T10:08:18.973Z,74.63
2022-12-16T10:09:14.601Z,74.63
2022-12-16T10:10:14.611Z,74.63
2022-12-16T10:11:14.601Z,74.73
2022-12-16T10:12:14.601Z,74.82
2022-12-16T10:13:14.577Z,74.73
2022-12-16T10:14:19.269Z,74.82
2022-12-16T10:15:14.568Z,74.82
2022-12-16T10:16:14.612Z,74.73
2022-12-16T10:17:14.560Z,74.63
2022-12-16T10:18:14.597Z,74.63
2022-12-16T10:19:14.533Z,74.54
2022-12-16T10:20:14.540Z,74.44
2022-12-16T10:21:14.546Z,74.73
2022-12-16T10:22:14.521Z,74.44
2022-12-16T10:23:14.493Z,74.44
2022-12-16T10:24:14.509Z,74.35
2022-12-16T10:25:14.489Z,74.63
2022-12-16T10:26:14.493Z,74.54
2022-12-16T10:27:14.466Z,74.54
2022-12-16T10:28:14.480Z,74.44
2022-12-16T10:29:14.784Z,74.44
2022-12-16T10:30:14.447Z,74.63
2022-12-16T10:31:14.506Z,74.63
2022-12-16T10:32:14.453Z,74.73
2022-12-16T10:33:14.433Z,74.44
2022-12-16T10:34:14.415Z,74.73
2022-12-16T10:35:14.406Z,74.63
2022-12-16T10:36:14.420Z,74.16
2022-12-16T10:37:19.099Z,73.87
2022-12-16T10:38:14.386Z,74.25
2022-12-16T10:39:14.388Z,74.16
2022-12-16T10:40:14.373Z,74.25
2022-12-16T10:41:14.380Z,74.16
2022-12-16T10:42:14.377Z,74.16
2022-12-16T10:43:15.782Z,74.06
2022-12-16T10:44:14.367Z,74.06
2022-12-16T10:45:14.340Z,74.06
2022-12-16T10:46:14.368Z,74.35
2022-12-16T10:47:14.326Z,74.35
2022-12-16T10:48:14.308Z,74.35
2022-12-16T10:49:14.460Z,74.16
2022-12-16T10:50:14.352Z,74.16
2022-12-16T10:51:14.304Z,74.25
2022-12-16T10:52:14.291Z,74.35
2022-12-16T10:53:14.286Z,74.25
2022-12-16T10:54:14.291Z,74.16
2022-12-16T10:55:14.258Z,74.16
2022-12-16T10:56:14.246Z,74.35
2022-12-16T10:57:14.252Z,74.44
2022-12-16T10:58:14.252Z,74.16
2022-12-16T10:59:14.237Z,74.16
2022-12-16T11:00:14.235Z,74.16
2022-12-16T11:01:14.239Z,74.16
2022-12-16T11:02:14.340Z,74.06
2022-12-16T11:03:14.388Z,74.25
2022-12-16T11:04:14.229Z,73.87
2022-12-16T11:05:14.178Z,74.16
2022-12-16T11:06:14.183Z,73.87
2022-12-16T11:07:14.167Z,73.87
2022-12-16T11:08:14.180Z,74.16
2022-12-16T11:09:14.227Z,74.16
2022-12-16T11:10:18.500Z,73.87
2022-12-16T11:11:14.131Z,73.96
2022-12-16T11:12:14.140Z,74.16
2022-12-16T11:13:14.116Z,74.25
2022-12-16T11:14:14.126Z,73.96
2022-12-16T11:15:28.565Z,74.16
2022-12-16T11:16:14.181Z,74.16
2022-12-16T11:17:14.138Z,73.77
2022-12-16T11:18:14.099Z,73.77
2022-12-16T11:19:14.141Z,73.77
2022-12-16T11:20:14.076Z,74.06
2022-12-16T11:21:15.926Z,73.96
2022-12-16T11:22:14.117Z,74.16
2022-12-16T11:23:14.046Z,73.96
2022-12-16T11:24:14.033Z,73.96
2022-12-16T11:25:14.044Z,73.87
2022-12-16T11:26:14.040Z,73.96
2022-12-16T11:27:14.016Z,73.87
2022-12-16T11:28:14.007Z,73.96
2022-12-16T11:29:13.997Z,73.87
2022-12-16T11:30:14.009Z,73.39
2022-12-16T11:31:14.151Z,73.96
2022-12-16T11:32:13.996Z,73.68
2022-12-16T11:33:13.968Z,73.77
2022-12-16T11:34:13.986Z,73.87
2022-12-16T11:35:13.973Z,73.87
2022-12-16T11:36:13.970Z,73.77
2022-12-16T11:37:19.495Z,73.77
2022-12-16T11:38:13.931Z,73.77
2022-12-16T11:39:13.929Z,73.68
2022-12-16T11:40:13.916Z,73.96
2022-12-16T11:41:13.924Z,73.58
2022-12-16T11:42:13.951Z,73.77
2022-12-16T11:43:16.987Z,73.49
2022-12-16T11:44:13.899Z,73.87
2022-12-16T11:45:13.871Z,73.39
2022-12-16T11:46:13.963Z,73.39
2022-12-16T11:47:13.865Z,73.68
2022-12-16T11:48:13.852Z,73.39
2022-12-16T11:49:13.853Z,73.68
2022-12-16T11:50:13.858Z,73.30
2022-12-16T11:51:13.836Z,73.39
2022-12-16T11:52:35.528Z,73.39
2022-12-16T11:53:13.807Z,73.39
2022-12-16T11:54:13.835Z,73.49
2022-12-16T11:55:13.874Z,73.49
2022-12-16T11:56:16.423Z,73.49
2022-12-16T11:57:13.848Z,73.49
2022-12-16T11:58:13.801Z,73.39
2022-12-16T11:59:13.761Z,73.39
2022-12-16T12:00:13.779Z,73.49
2022-12-16T12:01:13.750Z,73.39
2022-12-16T12:02:13.833Z,73.49
2022-12-16T12:03:13.933Z,73.39
2022-12-16T12:04:13.803Z,73.58
2022-12-16T12:05:13.737Z,73.49
2022-12-16T12:06:13.734Z,73.58
2022-12-16T12:07:13.703Z,73.39
2022-12-16T12:08:13.710Z,73.39
2022-12-16T12:09:13.708Z,73.39
2022-12-16T12:10:13.708Z,73.39
2022-12-16T12:11:13.683Z,73.87
2022-12-16T12:12:13.688Z,73.87
2022-12-16T12:13:13.700Z,73.77
2022-12-16T12:14:13.672Z,73.77
2022-12-16T12:15:13.647Z,73.68
2022-12-16T12:16:13.707Z,73.68
2022-12-16T12:17:13.639Z,73.68
2022-12-16T12:18:13.632Z,73.49
2022-12-16T12:19:13.620Z,73.49
2022-12-16T12:20:13.626Z,73.39
2022-12-16T12:21:13.618Z,73.49
2022-12-16T12:22:13.667Z,73.49
2022-12-16T12:23:13.599Z,73.30
2022-12-16T12:24:13.585Z,73.21
2022-12-16T12:25:13.571Z,73.21
2022-12-16T12:26:13.563Z,73.39
2022-12-16T12:27:13.573Z,73.30
2022-12-16T12:28:13.541Z,73.39
2022-12-16T12:29:13.566Z,73.39
2022-12-16T12:30:16.470Z,73.39
2022-12-16T12:31:13.590Z,73.30
2022-12-16T12:32:13.530Z,73.21
2022-12-16T12:33:13.513Z,73.21
2022-12-16T12:34:13.510Z,73.30
2022-12-16T12:35:13.497Z,73.58
2022-12-16T12:36:13.492Z,73.39
2022-12-16T12:37:13.517Z,73.11
2022-12-16T12:38:13.479Z,73.30
2022-12-16T12:39:13.460Z,73.30
2022-12-16T12:40:13.478Z,73.30
2022-12-16T12:41:13.461Z,73.30
2022-12-16T12:42:13.448Z,73.01
2022-12-16T12:43:13.430Z,73.01
2022-12-16T12:44:13.436Z,72.92
2022-12-16T12:45:13.443Z,73.01
2022-12-16T12:46:13.526Z,73.01
2022-12-16T12:47:13.504Z,72.82
2022-12-16T12:48:13.391Z,73.30
2022-12-16T12:49:13.405Z,73.11
2022-12-16T12:50:13.456Z,73.21
2022-12-16T12:51:13.375Z,73.11
2022-12-16T12:52:13.362Z,73.21
2022-12-16T12:53:13.361Z,72.92
2022-12-16T12:54:13.359Z,73.30
2022-12-16T12:55:13.340Z,73.21
2022-12-16T12:56:13.327Z,73.30
2022-12-16T12:57:13.347Z,73.30
2022-12-16T12:58:13.333Z,73.39
2022-12-16T12:59:13.312Z,73.11
2022-12-16T13:00:13.381Z,73.30
2022-12-16T13:01:13.431Z,73.30
2022-12-16T13:02:13.369Z,73.30
2022-12-16T13:03:13.465Z,73.30
2022-12-16T13:04:13.272Z,73.30
2022-12-16T13:05:13.300Z,73.30
2022-12-16T13:06:13.253Z,73.01
2022-12-16T13:07:13.271Z,72.92
2022-12-16T13:08:13.246Z,73.01
2022-12-16T13:09:13.269Z,73.21
2022-12-16T13:10:13.227Z,73.01
2022-12-16T13:11:13.241Z,73.01
2022-12-16T13:12:13.210Z,73.21
2022-12-16T13:13:13.203Z,73.30
2022-12-16T13:14:13.197Z,73.01
2022-12-16T13:15:13.212Z,73.21
2022-12-16T13:16:13.208Z,73.11
2022-12-16T13:17:13.198Z,73.21
2022-12-16T13:18:13.177Z,73.01
2022-12-16T13:19:13.169Z,73.21
2022-12-16T13:20:13.175Z,73.11
2022-12-16T13:21:13.158Z,73.21